sensor_id;sensor_type;location;lat;lon;timestamp;P1;durP1;ratioP1;P2;durP2;ratioP2
5684;SDS011;2865;53.114;9.130;2023-07-16T00:01:15;2.97;;;2.33;;
5684;SDS011;2865;53.114;9.130;2023-07-16T00:03:41;2.80;;;2.60;;
5684;SDS011;2865;53.114;9.130;2023-07-16T00:06:06;5.17;;;2.43;;
5684;SDS011;2865;53.114;9.130;2023-07-16T00:08:31;7.07;;;2.10;;
5684;SDS011;2865;53.114;9.130;2023-07-16T00:10:58;3.07;;;2.07;;
5684;SDS011;2865;53.114;9.130;2023-07-16T00:13:23;3.10;;;2.13;;
5684;SDS011;2865;53.114;9.130;2023-07-16T00:15:48;3.10;;;2.53;;
5684;SDS011;2865;53.114;9.130;2023-07-16T00:18:14;2.53;;;2.33;;
5684;SDS011;2865;53.114;9.130;2023-07-16T00:20:39;2.60;;;2.07;;
5684;SDS011;2865;53.114;9.130;2023-07-16T00:23:05;8.80;;;2.80;;
5684;SDS011;2865;53.114;9.130;2023-07-16T00:25:30;3.73;;;2.07;;
5684;SDS011;2865;53.114;9.130;2023-07-16T00:27:55;7.83;;;2.70;;
5684;SDS011;2865;53.114;9.130;2023-07-16T00:30:21;2.53;;;2.20;;
5684;SDS011;2865;53.114;9.130;2023-07-16T00:32:46;3.03;;;2.00;;
5684;SDS011;2865;53.114;9.130;2023-07-16T00:35:12;3.27;;;2.23;;
5684;SDS011;2865;53.114;9.130;2023-07-16T00:37:37;4.40;;;2.30;;
5684;SDS011;2865;53.114;9.130;2023-07-16T00:40:03;4.63;;;2.17;;
5684;SDS011;2865;53.114;9.130;2023-07-16T00:42:29;2.43;;;2.20;;
5684;SDS011;2865;53.114;9.130;2023-07-16T00:44:54;3.20;;;2.53;;
5684;SDS011;2865;53.114;9.130;2023-07-16T00:47:21;4.63;;;2.70;;
5684;SDS011;2865;53.114;9.130;2023-07-16T00:49:45;2.73;;;2.20;;
5684;SDS011;2865;53.114;9.130;2023-07-16T00:52:11;2.77;;;2.30;;
5684;SDS011;2865;53.114;9.130;2023-07-16T00:54:36;3.10;;;2.57;;
5684;SDS011;2865;53.114;9.130;2023-07-16T00:57:03;3.77;;;2.23;;
5684;SDS011;2865;53.114;9.130;2023-07-16T00:59:29;3.70;;;2.73;;
5684;SDS011;2865;53.114;9.130;2023-07-16T01:01:54;3.17;;;2.70;;
5684;SDS011;2865;53.114;9.130;2023-07-16T01:04:20;6.67;;;2.67;;
5684;SDS011;2865;53.114;9.130;2023-07-16T01:06:47;4.17;;;2.77;;
5684;SDS011;2865;53.114;9.130;2023-07-16T01:09:16;3.40;;;2.47;;
5684;SDS011;2865;53.114;9.130;2023-07-16T01:11:41;6.70;;;2.67;;
5684;SDS011;2865;53.114;9.130;2023-07-16T01:14:07;2.73;;;2.53;;
5684;SDS011;2865;53.114;9.130;2023-07-16T01:16:33;2.30;;;2.10;;
5684;SDS011;2865;53.114;9.130;2023-07-16T01:18:59;2.53;;;2.30;;
5684;SDS011;2865;53.114;9.130;2023-07-16T01:21:25;2.30;;;2.03;;
5684;SDS011;2865;53.114;9.130;2023-07-16T01:26:45;5.53;;;2.90;;
5684;SDS011;2865;53.114;9.130;2023-07-16T01:32:02;5.33;;;2.33;;
5684;SDS011;2865;53.114;9.130;2023-07-16T01:34:26;4.03;;;2.87;;
5684;SDS011;2865;53.114;9.130;2023-07-16T01:36:51;4.73;;;2.50;;
5684;SDS011;2865;53.114;9.130;2023-07-16T01:39:17;2.33;;;2.07;;
5684;SDS011;2865;53.114;9.130;2023-07-16T01:41:42;3.40;;;2.33;;
5684;SDS011;2865;53.114;9.130;2023-07-16T01:44:07;6.33;;;2.67;;
5684;SDS011;2865;53.114;9.130;2023-07-16T01:46:33;3.97;;;2.73;;
5684;SDS011;2865;53.114;9.130;2023-07-16T01:48:58;2.53;;;2.17;;
5684;SDS011;2865;53.114;9.130;2023-07-16T01:51:24;5.03;;;2.67;;
5684;SDS011;2865;53.114;9.130;2023-07-16T01:53:49;3.63;;;2.57;;
5684;SDS011;2865;53.114;9.130;2023-07-16T01:56:14;5.20;;;2.60;;
5684;SDS011;2865;53.114;9.130;2023-07-16T01:58:40;3.60;;;2.40;;
5684;SDS011;2865;53.114;9.130;2023-07-16T02:01:05;3.40;;;3.10;;
5684;SDS011;2865;53.114;9.130;2023-07-16T02:03:31;4.13;;;2.47;;
5684;SDS011;2865;53.114;9.130;2023-07-16T02:05:56;3.03;;;2.73;;
5684;SDS011;2865;53.114;9.130;2023-07-16T02:08:21;8.50;;;2.77;;
5684;SDS011;2865;53.114;9.130;2023-07-16T02:10:47;3.30;;;2.47;;
5684;SDS011;2865;53.114;9.130;2023-07-16T02:13:12;2.90;;;2.23;;
5684;SDS011;2865;53.114;9.130;2023-07-16T02:15:38;3.40;;;2.50;;
5684;SDS011;2865;53.114;9.130;2023-07-16T02:18:04;7.37;;;2.97;;
5684;SDS011;2865;53.114;9.130;2023-07-16T02:20:29;5.70;;;2.67;;
5684;SDS011;2865;53.114;9.130;2023-07-16T02:22:54;2.90;;;2.30;;
5684;SDS011;2865;53.114;9.130;2023-07-16T02:25:20;4.20;;;2.80;;
5684;SDS011;2865;53.114;9.130;2023-07-16T02:27:45;5.47;;;3.17;;
5684;SDS011;2865;53.114;9.130;2023-07-16T02:30:10;5.17;;;2.53;;
5684;SDS011;2865;53.114;9.130;2023-07-16T02:32:36;2.30;;;2.17;;
5684;SDS011;2865;53.114;9.130;2023-07-16T02:35:01;5.30;;;2.60;;
5684;SDS011;2865;53.114;9.130;2023-07-16T02:37:26;6.43;;;2.60;;
5684;SDS011;2865;53.114;9.130;2023-07-16T02:42:32;3.33;;;2.23;;
5684;SDS011;2865;53.114;9.130;2023-07-16T02:44:57;4.93;;;2.47;;
5684;SDS011;2865;53.114;9.130;2023-07-16T02:47:22;6.03;;;2.87;;
5684;SDS011;2865;53.114;9.130;2023-07-16T02:49:50;6.00;;;2.77;;
5684;SDS011;2865;53.114;9.130;2023-07-16T02:52:13;6.40;;;2.93;;
5684;SDS011;2865;53.114;9.130;2023-07-16T02:54:38;3.13;;;2.23;;
5684;SDS011;2865;53.114;9.130;2023-07-16T02:57:04;6.73;;;2.57;;
5684;SDS011;2865;53.114;9.130;2023-07-16T02:59:30;5.93;;;2.13;;
5684;SDS011;2865;53.114;9.130;2023-07-16T03:01:55;2.53;;;2.33;;
5684;SDS011;2865;53.114;9.130;2023-07-16T03:04:21;4.50;;;2.47;;
5684;SDS011;2865;53.114;9.130;2023-07-16T03:06:46;2.90;;;2.70;;
5684;SDS011;2865;53.114;9.130;2023-07-16T03:09:11;5.77;;;2.67;;
5684;SDS011;2865;53.114;9.130;2023-07-16T03:11:37;4.13;;;2.63;;
5684;SDS011;2865;53.114;9.130;2023-07-16T03:14:02;5.17;;;2.77;;
5684;SDS011;2865;53.114;9.130;2023-07-16T03:16:28;2.93;;;2.70;;
5684;SDS011;2865;53.114;9.130;2023-07-16T03:18:53;8.20;;;2.50;;
5684;SDS011;2865;53.114;9.130;2023-07-16T03:21:18;7.13;;;3.40;;
5684;SDS011;2865;53.114;9.130;2023-07-16T03:23:44;3.30;;;2.70;;
5684;SDS011;2865;53.114;9.130;2023-07-16T03:26:09;8.40;;;3.90;;
5684;SDS011;2865;53.114;9.130;2023-07-16T03:28:35;7.33;;;3.40;;
5684;SDS011;2865;53.114;9.130;2023-07-16T03:31:01;8.80;;;3.83;;
5684;SDS011;2865;53.114;9.130;2023-07-16T03:33:26;15.23;;;4.07;;
5684;SDS011;2865;53.114;9.130;2023-07-16T03:35:51;9.03;;;3.20;;
5684;SDS011;2865;53.114;9.130;2023-07-16T03:38:16;10.10;;;3.70;;
5684;SDS011;2865;53.114;9.130;2023-07-16T03:40:42;8.53;;;3.23;;
5684;SDS011;2865;53.114;9.130;2023-07-16T03:43:08;6.67;;;2.90;;
5684;SDS011;2865;53.114;9.130;2023-07-16T03:45:33;10.63;;;2.90;;
5684;SDS011;2865;53.114;9.130;2023-07-16T03:47:59;5.57;;;2.97;;
5684;SDS011;2865;53.114;9.130;2023-07-16T03:50:25;8.10;;;3.20;;
5684;SDS011;2865;53.114;9.130;2023-07-16T03:52:50;5.70;;;3.33;;
5684;SDS011;2865;53.114;9.130;2023-07-16T03:55:16;4.13;;;2.33;;
5684;SDS011;2865;53.114;9.130;2023-07-16T03:57:41;7.97;;;2.67;;
5684;SDS011;2865;53.114;9.130;2023-07-16T04:00:07;6.00;;;2.93;;
5684;SDS011;2865;53.114;9.130;2023-07-16T04:02:33;6.37;;;2.70;;
5684;SDS011;2865;53.114;9.130;2023-07-16T04:04:58;4.43;;;2.60;;
5684;SDS011;2865;53.114;9.130;2023-07-16T04:07:24;9.30;;;3.40;;
5684;SDS011;2865;53.114;9.130;2023-07-16T04:09:50;3.67;;;2.63;;
5684;SDS011;2865;53.114;9.130;2023-07-16T04:12:15;2.97;;;2.67;;
5684;SDS011;2865;53.114;9.130;2023-07-16T04:14:40;6.00;;;2.30;;
5684;SDS011;2865;53.114;9.130;2023-07-16T04:17:06;5.93;;;2.60;;
5684;SDS011;2865;53.114;9.130;2023-07-16T04:19:31;6.63;;;2.70;;
5684;SDS011;2865;53.114;9.130;2023-07-16T04:21:57;4.60;;;2.30;;
5684;SDS011;2865;53.114;9.130;2023-07-16T04:24:22;5.23;;;2.77;;
5684;SDS011;2865;53.114;9.130;2023-07-16T04:26:47;4.90;;;2.73;;
5684;SDS011;2865;53.114;9.130;2023-07-16T04:29:13;3.33;;;2.40;;
5684;SDS011;2865;53.114;9.130;2023-07-16T04:31:38;12.73;;;3.70;;
5684;SDS011;2865;53.114;9.130;2023-07-16T04:34:03;5.47;;;3.00;;
5684;SDS011;2865;53.114;9.130;2023-07-16T04:36:29;7.83;;;3.10;;
5684;SDS011;2865;53.114;9.130;2023-07-16T04:38:54;5.43;;;2.23;;
5684;SDS011;2865;53.114;9.130;2023-07-16T04:41:20;4.83;;;2.10;;
5684;SDS011;2865;53.114;9.130;2023-07-16T04:43:46;7.53;;;2.73;;
5684;SDS011;2865;53.114;9.130;2023-07-16T04:46:12;6.77;;;3.13;;
5684;SDS011;2865;53.114;9.130;2023-07-16T04:48:37;6.33;;;3.43;;
5684;SDS011;2865;53.114;9.130;2023-07-16T04:51:03;4.40;;;2.70;;
5684;SDS011;2865;53.114;9.130;2023-07-16T04:53:28;10.93;;;3.17;;
5684;SDS011;2865;53.114;9.130;2023-07-16T04:55:53;6.37;;;2.57;;
5684;SDS011;2865;53.114;9.130;2023-07-16T04:58:19;5.53;;;2.63;;
5684;SDS011;2865;53.114;9.130;2023-07-16T05:00:44;8.13;;;2.77;;
5684;SDS011;2865;53.114;9.130;2023-07-16T05:03:09;10.20;;;2.63;;
5684;SDS011;2865;53.114;9.130;2023-07-16T05:05:35;7.60;;;2.40;;
5684;SDS011;2865;53.114;9.130;2023-07-16T05:08:00;4.67;;;2.73;;
5684;SDS011;2865;53.114;9.130;2023-07-16T05:10:26;23.30;;;3.00;;
5684;SDS011;2865;53.114;9.130;2023-07-16T05:12:51;4.30;;;2.27;;
5684;SDS011;2865;53.114;9.130;2023-07-16T05:15:16;6.80;;;2.87;;
5684;SDS011;2865;53.114;9.130;2023-07-16T05:17:42;4.50;;;2.23;;
5684;SDS011;2865;53.114;9.130;2023-07-16T05:20:07;5.80;;;2.37;;
5684;SDS011;2865;53.114;9.130;2023-07-16T05:22:33;5.77;;;2.80;;
5684;SDS011;2865;53.114;9.130;2023-07-16T05:24:58;9.80;;;2.70;;
5684;SDS011;2865;53.114;9.130;2023-07-16T05:27:24;12.67;;;2.87;;
5684;SDS011;2865;53.114;9.130;2023-07-16T05:29:50;3.60;;;2.20;;
5684;SDS011;2865;53.114;9.130;2023-07-16T05:32:15;3.53;;;2.40;;
5684;SDS011;2865;53.114;9.130;2023-07-16T05:34:41;6.57;;;2.57;;
5684;SDS011;2865;53.114;9.130;2023-07-16T05:37:06;2.97;;;2.40;;
5684;SDS011;2865;53.114;9.130;2023-07-16T05:39:31;4.47;;;2.27;;
5684;SDS011;2865;53.114;9.130;2023-07-16T05:41:57;3.70;;;2.50;;
5684;SDS011;2865;53.114;9.130;2023-07-16T05:44:22;19.13;;;2.57;;
5684;SDS011;2865;53.114;9.130;2023-07-16T05:46:48;5.27;;;1.83;;
5684;SDS011;2865;53.114;9.130;2023-07-16T05:49:13;3.20;;;2.60;;
5684;SDS011;2865;53.114;9.130;2023-07-16T05:51:38;6.03;;;2.03;;
5684;SDS011;2865;53.114;9.130;2023-07-16T05:54:04;4.37;;;2.53;;
5684;SDS011;2865;53.114;9.130;2023-07-16T05:56:29;9.50;;;2.17;;
5684;SDS011;2865;53.114;9.130;2023-07-16T05:58:55;6.73;;;2.30;;
5684;SDS011;2865;53.114;9.130;2023-07-16T06:01:20;7.30;;;2.27;;
5684;SDS011;2865;53.114;9.130;2023-07-16T06:03:45;3.80;;;2.17;;
5684;SDS011;2865;53.114;9.130;2023-07-16T06:06:11;5.90;;;2.27;;
5684;SDS011;2865;53.114;9.130;2023-07-16T06:08:36;7.87;;;2.30;;
5684;SDS011;2865;53.114;9.130;2023-07-16T06:11:01;2.27;;;2.10;;
5684;SDS011;2865;53.114;9.130;2023-07-16T06:13:27;6.67;;;3.10;;
5684;SDS011;2865;53.114;9.130;2023-07-16T06:15:52;6.17;;;2.97;;
5684;SDS011;2865;53.114;9.130;2023-07-16T06:18:19;5.70;;;2.77;;
5684;SDS011;2865;53.114;9.130;2023-07-16T06:20:44;7.70;;;2.60;;
5684;SDS011;2865;53.114;9.130;2023-07-16T06:23:10;7.37;;;2.60;;
5684;SDS011;2865;53.114;9.130;2023-07-16T06:25:35;15.43;;;2.80;;
5684;SDS011;2865;53.114;9.130;2023-07-16T06:28:01;3.80;;;1.97;;
5684;SDS011;2865;53.114;9.130;2023-07-16T06:30:27;20.47;;;3.23;;
5684;SDS011;2865;53.114;9.130;2023-07-16T06:32:52;3.97;;;2.50;;
5684;SDS011;2865;53.114;9.130;2023-07-16T06:35:18;5.47;;;3.23;;
5684;SDS011;2865;53.114;9.130;2023-07-16T06:37:43;6.13;;;2.50;;
5684;SDS011;2865;53.114;9.130;2023-07-16T06:40:09;4.67;;;2.70;;
5684;SDS011;2865;53.114;9.130;2023-07-16T06:42:35;8.10;;;3.23;;
5684;SDS011;2865;53.114;9.130;2023-07-16T06:45:01;5.73;;;2.30;;
5684;SDS011;2865;53.114;9.130;2023-07-16T06:47:26;7.67;;;3.07;;
5684;SDS011;2865;53.114;9.130;2023-07-16T06:49:51;4.57;;;2.13;;
5684;SDS011;2865;53.114;9.130;2023-07-16T06:52:18;5.57;;;2.63;;
5684;SDS011;2865;53.114;9.130;2023-07-16T06:54:44;8.00;;;2.60;;
5684;SDS011;2865;53.114;9.130;2023-07-16T06:57:09;2.87;;;1.80;;
5684;SDS011;2865;53.114;9.130;2023-07-16T06:59:35;3.70;;;2.50;;
5684;SDS011;2865;53.114;9.130;2023-07-16T07:02:00;9.23;;;3.90;;
5684;SDS011;2865;53.114;9.130;2023-07-16T07:04:26;5.50;;;2.10;;
5684;SDS011;2865;53.114;9.130;2023-07-16T07:06:51;5.47;;;2.37;;
5684;SDS011;2865;53.114;9.130;2023-07-16T07:09:16;8.10;;;3.90;;
5684;SDS011;2865;53.114;9.130;2023-07-16T07:11:42;4.73;;;2.87;;
5684;SDS011;2865;53.114;9.130;2023-07-16T07:14:07;11.80;;;3.33;;
5684;SDS011;2865;53.114;9.130;2023-07-16T07:16:32;5.43;;;2.10;;
5684;SDS011;2865;53.114;9.130;2023-07-16T07:18:58;11.90;;;3.40;;
5684;SDS011;2865;53.114;9.130;2023-07-16T07:21:24;6.53;;;3.20;;
5684;SDS011;2865;53.114;9.130;2023-07-16T07:23:49;6.00;;;2.97;;
5684;SDS011;2865;53.114;9.130;2023-07-16T07:26:14;8.63;;;5.13;;
5684;SDS011;2865;53.114;9.130;2023-07-16T07:28:40;11.13;;;4.20;;
5684;SDS011;2865;53.114;9.130;2023-07-16T07:31:05;10.77;;;3.57;;
5684;SDS011;2865;53.114;9.130;2023-07-16T07:33:31;5.53;;;3.90;;
5684;SDS011;2865;53.114;9.130;2023-07-16T07:35:56;4.40;;;4.00;;
5684;SDS011;2865;53.114;9.130;2023-07-16T07:38:21;4.50;;;4.10;;
5684;SDS011;2865;53.114;9.130;2023-07-16T07:40:47;10.30;;;4.57;;
5684;SDS011;2865;53.114;9.130;2023-07-16T07:43:12;12.00;;;4.17;;
5684;SDS011;2865;53.114;9.130;2023-07-16T07:45:37;5.00;;;4.03;;
5684;SDS011;2865;53.114;9.130;2023-07-16T07:48:03;13.33;;;3.80;;
5684;SDS011;2865;53.114;9.130;2023-07-16T07:50:29;7.77;;;4.20;;
5684;SDS011;2865;53.114;9.130;2023-07-16T07:52:54;8.90;;;3.97;;
5684;SDS011;2865;53.114;9.130;2023-07-16T07:55:20;4.70;;;3.47;;
5684;SDS011;2865;53.114;9.130;2023-07-16T07:57:45;6.67;;;4.07;;
5684;SDS011;2865;53.114;9.130;2023-07-16T08:00:11;8.60;;;3.70;;
5684;SDS011;2865;53.114;9.130;2023-07-16T08:02:38;7.97;;;3.63;;
5684;SDS011;2865;53.114;9.130;2023-07-16T08:05:04;4.97;;;3.67;;
5684;SDS011;2865;53.114;9.130;2023-07-16T08:07:30;20.33;;;4.07;;
5684;SDS011;2865;53.114;9.130;2023-07-16T08:09:55;7.87;;;4.07;;
5684;SDS011;2865;53.114;9.130;2023-07-16T08:12:21;5.63;;;3.70;;
5684;SDS011;2865;53.114;9.130;2023-07-16T08:14:47;7.77;;;3.87;;
5684;SDS011;2865;53.114;9.130;2023-07-16T08:17:12;7.60;;;3.80;;
5684;SDS011;2865;53.114;9.130;2023-07-16T08:19:38;10.83;;;3.73;;
5684;SDS011;2865;53.114;9.130;2023-07-16T08:22:04;6.30;;;4.27;;
5684;SDS011;2865;53.114;9.130;2023-07-16T08:24:30;9.67;;;4.73;;
5684;SDS011;2865;53.114;9.130;2023-07-16T08:26:56;5.03;;;3.87;;
5684;SDS011;2865;53.114;9.130;2023-07-16T08:29:21;11.90;;;4.47;;
5684;SDS011;2865;53.114;9.130;2023-07-16T08:31:47;5.53;;;3.40;;
5684;SDS011;2865;53.114;9.130;2023-07-16T08:34:12;4.23;;;3.63;;
5684;SDS011;2865;53.114;9.130;2023-07-16T08:36:38;6.50;;;3.70;;
5684;SDS011;2865;53.114;9.130;2023-07-16T08:39:03;4.40;;;3.47;;
5684;SDS011;2865;53.114;9.130;2023-07-16T08:41:29;9.17;;;4.10;;
5684;SDS011;2865;53.114;9.130;2023-07-16T08:43:55;6.87;;;3.80;;
5684;SDS011;2865;53.114;9.130;2023-07-16T08:46:21;12.23;;;3.70;;
5684;SDS011;2865;53.114;9.130;2023-07-16T08:48:46;8.53;;;4.07;;
5684;SDS011;2865;53.114;9.130;2023-07-16T08:51:13;5.13;;;3.37;;
5684;SDS011;2865;53.114;9.130;2023-07-16T08:53:37;5.87;;;3.37;;
5684;SDS011;2865;53.114;9.130;2023-07-16T08:56:02;9.70;;;4.00;;
5684;SDS011;2865;53.114;9.130;2023-07-16T08:58:28;22.93;;;3.67;;
5684;SDS011;2865;53.114;9.130;2023-07-16T09:00:53;12.47;;;3.57;;
5684;SDS011;2865;53.114;9.130;2023-07-16T09:03:19;4.93;;;3.43;;
5684;SDS011;2865;53.114;9.130;2023-07-16T09:05:44;5.27;;;3.87;;
5684;SDS011;2865;53.114;9.130;2023-07-16T09:08:10;7.83;;;4.03;;
5684;SDS011;2865;53.114;9.130;2023-07-16T09:10:35;3.97;;;3.00;;
5684;SDS011;2865;53.114;9.130;2023-07-16T09:13:01;7.33;;;3.27;;
5684;SDS011;2865;53.114;9.130;2023-07-16T09:15:27;5.93;;;3.80;;
5684;SDS011;2865;53.114;9.130;2023-07-16T09:17:53;8.93;;;3.10;;
5684;SDS011;2865;53.114;9.130;2023-07-16T09:20:18;7.83;;;3.20;;
5684;SDS011;2865;53.114;9.130;2023-07-16T09:22:43;9.23;;;3.60;;
5684;SDS011;2865;53.114;9.130;2023-07-16T09:25:08;6.67;;;3.60;;
5684;SDS011;2865;53.114;9.130;2023-07-16T09:27:34;7.37;;;4.07;;
5684;SDS011;2865;53.114;9.130;2023-07-16T09:29:59;6.00;;;4.43;;
5684;SDS011;2865;53.114;9.130;2023-07-16T09:34:59;9.40;;;4.40;;
5684;SDS011;2865;53.114;9.130;2023-07-16T09:37:25;12.00;;;4.70;;
5684;SDS011;2865;53.114;9.130;2023-07-16T09:39:50;4.00;;;3.60;;
5684;SDS011;2865;53.114;9.130;2023-07-16T09:42:15;6.37;;;3.50;;
5684;SDS011;2865;53.114;9.130;2023-07-16T09:44:41;6.23;;;3.90;;
5684;SDS011;2865;53.114;9.130;2023-07-16T09:47:06;6.73;;;3.80;;
5684;SDS011;2865;53.114;9.130;2023-07-16T09:49:32;8.80;;;3.90;;
5684;SDS011;2865;53.114;9.130;2023-07-16T09:51:57;4.53;;;3.10;;
5684;SDS011;2865;53.114;9.130;2023-07-16T09:54:24;10.67;;;3.77;;
5684;SDS011;2865;53.114;9.130;2023-07-16T09:56:49;5.63;;;3.40;;
5684;SDS011;2865;53.114;9.130;2023-07-16T09:59:15;5.47;;;3.60;;
5684;SDS011;2865;53.114;9.130;2023-07-16T10:01:40;6.10;;;4.00;;
5684;SDS011;2865;53.114;9.130;2023-07-16T10:04:11;7.90;;;4.10;;
5684;SDS011;2865;53.114;9.130;2023-07-16T10:06:36;8.37;;;3.80;;
5684;SDS011;2865;53.114;9.130;2023-07-16T10:09:02;5.57;;;3.50;;
5684;SDS011;2865;53.114;9.130;2023-07-16T10:11:27;5.17;;;3.27;;
5684;SDS011;2865;53.114;9.130;2023-07-16T10:13:53;10.33;;;2.90;;
5684;SDS011;2865;53.114;9.130;2023-07-16T10:16:20;7.00;;;3.30;;
5684;SDS011;2865;53.114;9.130;2023-07-16T10:18:49;8.03;;;3.50;;
5684;SDS011;2865;53.114;9.130;2023-07-16T10:21:10;5.93;;;3.30;;
5684;SDS011;2865;53.114;9.130;2023-07-16T10:23:38;7.13;;;3.13;;
5684;SDS011;2865;53.114;9.130;2023-07-16T10:26:04;8.07;;;2.90;;
5684;SDS011;2865;53.114;9.130;2023-07-16T10:28:34;5.77;;;3.20;;
5684;SDS011;2865;53.114;9.130;2023-07-16T10:30:59;4.67;;;2.93;;
5684;SDS011;2865;53.114;9.130;2023-07-16T10:33:24;7.10;;;3.60;;
5684;SDS011;2865;53.114;9.130;2023-07-16T10:35:50;8.10;;;3.10;;
5684;SDS011;2865;53.114;9.130;2023-07-16T10:38:15;3.93;;;2.97;;
5684;SDS011;2865;53.114;9.130;2023-07-16T10:40:41;3.43;;;2.60;;
5684;SDS011;2865;53.114;9.130;2023-07-16T10:43:06;5.03;;;3.43;;
5684;SDS011;2865;53.114;9.130;2023-07-16T10:45:31;6.53;;;2.93;;
5684;SDS011;2865;53.114;9.130;2023-07-16T10:47:58;6.80;;;3.13;;
5684;SDS011;2865;53.114;9.130;2023-07-16T10:50:24;5.50;;;2.97;;
5684;SDS011;2865;53.114;9.130;2023-07-16T10:52:50;8.00;;;3.23;;
5684;SDS011;2865;53.114;9.130;2023-07-16T10:55:17;5.40;;;2.47;;
5684;SDS011;2865;53.114;9.130;2023-07-16T10:57:43;6.40;;;2.87;;
5684;SDS011;2865;53.114;9.130;2023-07-16T11:00:09;7.10;;;3.17;;
5684;SDS011;2865;53.114;9.130;2023-07-16T11:02:38;8.07;;;2.83;;
5684;SDS011;2865;53.114;9.130;2023-07-16T11:05:02;7.00;;;2.67;;
5684;SDS011;2865;53.114;9.130;2023-07-16T11:07:27;4.80;;;2.53;;
5684;SDS011;2865;53.114;9.130;2023-07-16T11:09:53;2.77;;;2.53;;
5684;SDS011;2865;53.114;9.130;2023-07-16T11:12:18;4.73;;;2.37;;
5684;SDS011;2865;53.114;9.130;2023-07-16T11:14:44;7.17;;;3.30;;
5684;SDS011;2865;53.114;9.130;2023-07-16T11:17:08;3.80;;;2.20;;
5684;SDS011;2865;53.114;9.130;2023-07-16T11:19:34;6.23;;;2.50;;
5684;SDS011;2865;53.114;9.130;2023-07-16T11:22:00;4.30;;;2.80;;
5684;SDS011;2865;53.114;9.130;2023-07-16T11:24:25;4.70;;;2.63;;
5684;SDS011;2865;53.114;9.130;2023-07-16T11:26:51;3.70;;;2.60;;
5684;SDS011;2865;53.114;9.130;2023-07-16T11:29:17;5.10;;;2.73;;
5684;SDS011;2865;53.114;9.130;2023-07-16T11:31:42;4.53;;;2.87;;
5684;SDS011;2865;53.114;9.130;2023-07-16T11:34:07;7.00;;;2.90;;
5684;SDS011;2865;53.114;9.130;2023-07-16T11:36:33;7.57;;;2.87;;
5684;SDS011;2865;53.114;9.130;2023-07-16T11:38:58;2.73;;;2.40;;
5684;SDS011;2865;53.114;9.130;2023-07-16T11:41:24;3.20;;;2.53;;
5684;SDS011;2865;53.114;9.130;2023-07-16T11:43:49;3.73;;;2.70;;
5684;SDS011;2865;53.114;9.130;2023-07-16T11:46:15;2.00;;;1.90;;
5684;SDS011;2865;53.114;9.130;2023-07-16T11:48:40;4.27;;;2.73;;
5684;SDS011;2865;53.114;9.130;2023-07-16T11:51:06;2.57;;;2.10;;
5684;SDS011;2865;53.114;9.130;2023-07-16T11:53:31;7.70;;;2.70;;
5684;SDS011;2865;53.114;9.130;2023-07-16T11:55:57;6.93;;;3.37;;
5684;SDS011;2865;53.114;9.130;2023-07-16T11:58:22;6.97;;;2.77;;
5684;SDS011;2865;53.114;9.130;2023-07-16T12:00:47;4.40;;;2.50;;
5684;SDS011;2865;53.114;9.130;2023-07-16T12:03:13;5.30;;;3.00;;
5684;SDS011;2865;53.114;9.130;2023-07-16T12:05:38;4.90;;;2.50;;
5684;SDS011;2865;53.114;9.130;2023-07-16T12:08:04;5.43;;;2.57;;
5684;SDS011;2865;53.114;9.130;2023-07-16T12:10:29;5.63;;;2.20;;
5684;SDS011;2865;53.114;9.130;2023-07-16T12:12:55;3.40;;;2.13;;
5684;SDS011;2865;53.114;9.130;2023-07-16T12:15:20;4.57;;;3.10;;
5684;SDS011;2865;53.114;9.130;2023-07-16T12:17:45;5.77;;;2.90;;
5684;SDS011;2865;53.114;9.130;2023-07-16T12:20:11;3.17;;;2.50;;
5684;SDS011;2865;53.114;9.130;2023-07-16T12:22:36;4.93;;;2.30;;
5684;SDS011;2865;53.114;9.130;2023-07-16T12:25:01;4.80;;;2.57;;
5684;SDS011;2865;53.114;9.130;2023-07-16T12:27:27;5.97;;;2.60;;
5684;SDS011;2865;53.114;9.130;2023-07-16T12:29:52;4.30;;;2.57;;
5684;SDS011;2865;53.114;9.130;2023-07-16T12:32:18;5.17;;;2.70;;
5684;SDS011;2865;53.114;9.130;2023-07-16T12:34:43;4.67;;;2.50;;
5684;SDS011;2865;53.114;9.130;2023-07-16T12:37:09;2.40;;;2.03;;
5684;SDS011;2865;53.114;9.130;2023-07-16T12:39:34;4.77;;;2.73;;
5684;SDS011;2865;53.114;9.130;2023-07-16T12:41:59;5.90;;;3.07;;
5684;SDS011;2865;53.114;9.130;2023-07-16T12:44:25;12.40;;;2.40;;
5684;SDS011;2865;53.114;9.130;2023-07-16T12:46:51;6.37;;;2.70;;
5684;SDS011;2865;53.114;9.130;2023-07-16T12:49:16;4.90;;;2.17;;
5684;SDS011;2865;53.114;9.130;2023-07-16T12:51:42;3.77;;;3.00;;
5684;SDS011;2865;53.114;9.130;2023-07-16T12:54:07;4.53;;;2.67;;
5684;SDS011;2865;53.114;9.130;2023-07-16T12:56:32;3.13;;;2.40;;
5684;SDS011;2865;53.114;9.130;2023-07-16T12:58:58;3.60;;;2.40;;
5684;SDS011;2865;53.114;9.130;2023-07-16T13:01:23;3.27;;;2.60;;
5684;SDS011;2865;53.114;9.130;2023-07-16T13:03:49;7.27;;;2.50;;
5684;SDS011;2865;53.114;9.130;2023-07-16T13:06:14;3.00;;;2.57;;
5684;SDS011;2865;53.114;9.130;2023-07-16T13:08:39;3.30;;;2.43;;
5684;SDS011;2865;53.114;9.130;2023-07-16T13:11:05;2.73;;;2.10;;
5684;SDS011;2865;53.114;9.130;2023-07-16T13:13:30;4.40;;;2.70;;
5684;SDS011;2865;53.114;9.130;2023-07-16T13:15:56;3.33;;;2.47;;
5684;SDS011;2865;53.114;9.130;2023-07-16T13:18:21;4.73;;;2.87;;
5684;SDS011;2865;53.114;9.130;2023-07-16T13:20:47;3.47;;;3.00;;
5684;SDS011;2865;53.114;9.130;2023-07-16T13:23:12;8.40;;;2.53;;
5684;SDS011;2865;53.114;9.130;2023-07-16T13:25:37;7.87;;;2.53;;
5684;SDS011;2865;53.114;9.130;2023-07-16T13:28:03;7.83;;;3.00;;
5684;SDS011;2865;53.114;9.130;2023-07-16T13:30:29;4.77;;;2.77;;
5684;SDS011;2865;53.114;9.130;2023-07-16T13:32:54;5.67;;;3.13;;
5684;SDS011;2865;53.114;9.130;2023-07-16T13:35:20;3.73;;;2.70;;
5684;SDS011;2865;53.114;9.130;2023-07-16T13:37:45;3.57;;;2.70;;
5684;SDS011;2865;53.114;9.130;2023-07-16T13:40:11;3.73;;;2.50;;
5684;SDS011;2865;53.114;9.130;2023-07-16T13:42:37;3.30;;;2.57;;
5684;SDS011;2865;53.114;9.130;2023-07-16T13:45:02;4.77;;;2.80;;
5684;SDS011;2865;53.114;9.130;2023-07-16T13:47:28;5.57;;;2.60;;
5684;SDS011;2865;53.114;9.130;2023-07-16T13:49:54;4.57;;;2.40;;
5684;SDS011;2865;53.114;9.130;2023-07-16T13:52:19;5.50;;;2.33;;
5684;SDS011;2865;53.114;9.130;2023-07-16T13:54:45;6.40;;;2.53;;
5684;SDS011;2865;53.114;9.130;2023-07-16T13:57:10;3.20;;;2.90;;
5684;SDS011;2865;53.114;9.130;2023-07-16T13:59:35;4.90;;;3.03;;
5684;SDS011;2865;53.114;9.130;2023-07-16T14:02:01;4.60;;;2.53;;
5684;SDS011;2865;53.114;9.130;2023-07-16T14:04:27;3.03;;;2.30;;
5684;SDS011;2865;53.114;9.130;2023-07-16T14:06:52;4.97;;;3.13;;
5684;SDS011;2865;53.114;9.130;2023-07-16T14:09:17;6.97;;;3.00;;
5684;SDS011;2865;53.114;9.130;2023-07-16T14:11:43;4.20;;;2.70;;
5684;SDS011;2865;53.114;9.130;2023-07-16T14:14:08;6.27;;;3.00;;
5684;SDS011;2865;53.114;9.130;2023-07-16T14:16:34;5.23;;;3.03;;
5684;SDS011;2865;53.114;9.130;2023-07-16T14:19:00;3.23;;;2.40;;
5684;SDS011;2865;53.114;9.130;2023-07-16T14:21:26;4.27;;;2.20;;
5684;SDS011;2865;53.114;9.130;2023-07-16T14:23:51;5.20;;;2.70;;
5684;SDS011;2865;53.114;9.130;2023-07-16T14:26:16;5.33;;;2.90;;
5684;SDS011;2865;53.114;9.130;2023-07-16T14:28:42;2.50;;;2.20;;
5684;SDS011;2865;53.114;9.130;2023-07-16T14:31:07;3.47;;;2.70;;
5684;SDS011;2865;53.114;9.130;2023-07-16T14:33:33;4.10;;;2.93;;
5684;SDS011;2865;53.114;9.130;2023-07-16T14:35:58;10.93;;;3.00;;
5684;SDS011;2865;53.114;9.130;2023-07-16T14:38:25;3.57;;;2.53;;
5684;SDS011;2865;53.114;9.130;2023-07-16T14:40:50;3.80;;;3.10;;
5684;SDS011;2865;53.114;9.130;2023-07-16T14:43:16;3.90;;;2.90;;
5684;SDS011;2865;53.114;9.130;2023-07-16T14:45:41;6.37;;;2.83;;
5684;SDS011;2865;53.114;9.130;2023-07-16T14:48:06;3.33;;;2.50;;
5684;SDS011;2865;53.114;9.130;2023-07-16T14:50:32;4.03;;;3.20;;
5684;SDS011;2865;53.114;9.130;2023-07-16T14:52:58;4.47;;;2.50;;
5684;SDS011;2865;53.114;9.130;2023-07-16T14:55:23;5.40;;;3.20;;
5684;SDS011;2865;53.114;9.130;2023-07-16T14:57:49;3.83;;;2.63;;
5684;SDS011;2865;53.114;9.130;2023-07-16T15:00:14;4.63;;;2.90;;
5684;SDS011;2865;53.114;9.130;2023-07-16T15:02:40;4.47;;;2.83;;
5684;SDS011;2865;53.114;9.130;2023-07-16T15:05:05;5.80;;;2.77;;
5684;SDS011;2865;53.114;9.130;2023-07-16T15:07:31;3.70;;;2.50;;
5684;SDS011;2865;53.114;9.130;2023-07-16T15:09:57;7.37;;;3.17;;
5684;SDS011;2865;53.114;9.130;2023-07-16T15:12:23;4.20;;;2.37;;
5684;SDS011;2865;53.114;9.130;2023-07-16T15:14:48;3.50;;;3.00;;